createdAt,value
2024-02-08T00:00:16.364Z,5.10
2024-02-08T00:05:38.546Z,4.80
2024-02-08T00:10:50.944Z,5.40
2024-02-08T00:15:59.514Z,19.90
2024-02-08T00:21:09.817Z,4.90
2024-02-08T00:26:49.489Z,4.10
2024-02-08T00:32:10.585Z,4.90
2024-02-08T00:37:12.887Z,4.60
2024-02-08T00:42:27.978Z,5.10
2024-02-08T00:47:33.035Z,5.30
2024-02-08T00:52:46.671Z,4.50
2024-02-08T00:58:08.914Z,3.60
2024-02-08T01:03:11.528Z,3.00
2024-02-08T01:08:13.929Z,3.20
2024-02-08T01:13:19.232Z,3.50
2024-02-08T01:18:21.484Z,3.90
2024-02-08T01:23:28.702Z,3.60
2024-02-08T01:28:33.569Z,3.60
2024-02-08T01:33:38.307Z,3.80
2024-02-08T01:39:05.549Z,3.80
2024-02-08T01:44:55.705Z,4.00
2024-02-08T01:50:35.606Z,3.70
2024-02-08T01:55:40.955Z,3.90
2024-02-08T02:00:49.966Z,4.10
2024-02-08T02:05:54.495Z,4.60
2024-02-08T02:11:40.684Z,4.90
2024-02-08T02:17:03.117Z,4.70
2024-02-08T02:22:34.443Z,4.80
2024-02-08T02:28:04.319Z,5.70
2024-02-08T02:33:26.948Z,5.00
2024-02-08T02:38:29.821Z,4.20
2024-02-08T02:43:34.968Z,4.30
2024-02-08T02:49:10.134Z,5.00
2024-02-08T02:54:23.051Z,4.70
2024-02-08T02:59:31.003Z,4.80
2024-02-08T03:05:13.617Z,4.10
2024-02-08T03:10:35.058Z,4.50
2024-02-08T03:15:39.485Z,4.20
2024-02-08T03:20:47.543Z,4.00
2024-02-08T03:25:54.360Z,4.20
2024-02-08T03:31:52.023Z,4.00
2024-02-08T03:37:07.859Z,4.30
2024-02-08T03:42:47.748Z,4.90
2024-02-08T03:48:11.484Z,5.20
2024-02-08T03:53:14.386Z,5.30
2024-02-08T03:59:10.801Z,5.20
2024-02-08T04:04:13.187Z,4.70
2024-02-08T04:09:34.414Z,4.00
2024-02-08T04:15:35.398Z,3.90
2024-02-08T04:21:16.719Z,3.80
2024-02-08T04:26:39.942Z,3.90
2024-02-08T04:32:00.499Z,4.30
2024-02-08T04:37:21.288Z,4.30
2024-02-08T04:42:41.755Z,5.30
2024-02-08T04:48:02.662Z,5.70
2024-02-08T04:53:23.508Z,6.40
2024-02-08T04:58:47.575Z,6.40
2024-02-08T05:03:49.629Z,5.50
2024-02-08T05:08:58.096Z,6.30
2024-02-08T05:14:03.393Z,6.00
2024-02-08T05:19:11.273Z,8.40
2024-02-08T05:24:15.159Z,8.50
2024-02-08T05:29:22.831Z,8.80
2024-02-08T05:34:40.321Z,9.00
2024-02-08T05:39:44.563Z,9.60
2024-02-08T05:44:56.756Z,10.50
2024-02-08T05:50:01.010Z,12.10
2024-02-08T05:55:04.383Z,9.10
2024-02-08T06:00:27.422Z,8.40
2024-02-08T06:05:31.716Z,6.90
2024-02-08T06:10:42.862Z,7.10
2024-02-08T06:15:47.652Z,6.70
2024-02-08T06:21:00.101Z,6.60
2024-02-08T06:26:32.666Z,7.20
2024-02-08T06:31:51.336Z,6.90
2024-02-08T06:37:02.751Z,7.30
2024-02-08T06:42:23.932Z,7.80
2024-02-08T06:47:51.932Z,8.80
2024-02-08T06:53:15.100Z,8.90
2024-02-08T06:58:55.813Z,8.40
2024-02-08T07:04:26.912Z,7.80
2024-02-08T07:09:47.629Z,8.20
2024-02-08T07:15:08.345Z,7.50
2024-02-08T07:20:56.785Z,7.40
2024-02-08T07:26:33.765Z,7.20
2024-02-08T07:31:55.079Z,8.00
2024-02-08T07:37:25.785Z,7.90
2024-02-08T07:42:33.016Z,7.70
2024-02-08T07:47:57.883Z,7.30
2024-02-08T07:53:20.363Z,7.30
2024-02-08T07:58:27.859Z,7.90
2024-02-08T08:03:35.996Z,7.70
2024-02-08T08:08:58.156Z,8.10
2024-02-08T08:14:41.247Z,7.10
2024-02-08T08:19:47.362Z,7.30
2024-02-08T08:25:28.884Z,6.90
2024-02-08T08:30:47.329Z,7.90
2024-02-08T08:35:54.547Z,7.10
2024-02-08T08:41:07.517Z,7.40
2024-02-08T08:46:19.409Z,7.70
2024-02-08T08:51:30.719Z,7.00
2024-02-08T08:56:35.120Z,7.60
2024-02-08T09:01:40.694Z,8.00
2024-02-08T09:06:53.519Z,7.80
2024-02-08T09:11:58.319Z,8.00
2024-02-08T09:17:23.614Z,7.80
2024-02-08T09:22:33.491Z,8.70
2024-02-08T09:27:39.090Z,8.40
2024-02-08T09:32:50.636Z,8.10
2024-02-08T09:37:52.828Z,8.10
2024-02-08T09:42:58.059Z,8.00
2024-02-08T09:48:15.001Z,8.10
2024-02-08T09:53:30.668Z,7.20
2024-02-08T09:58:38.634Z,7.70
2024-02-08T10:03:47.182Z,6.70
2024-02-08T10:08:55.033Z,5.80
2024-02-08T10:14:02.279Z,5.50
2024-02-08T10:19:05.213Z,5.30
2024-02-08T10:24:28.967Z,5.10
2024-02-08T10:29:32.426Z,5.00
2024-02-08T10:34:40.583Z,4.50
2024-02-08T10:39:58.487Z,3.90
2024-02-08T10:45:05.994Z,4.20
2024-02-08T10:50:20.309Z,3.90
2024-02-08T10:55:31.085Z,4.40
2024-02-08T11:01:01.492Z,4.40
2024-02-08T11:06:05.338Z,3.70
2024-02-08T11:11:14.186Z,4.50
2024-02-08T11:17:12.100Z,3.80
2024-02-08T11:22:40.703Z,4.80
2024-02-08T11:27:42.681Z,4.30
2024-02-08T11:32:58.929Z,4.20
2024-02-08T11:38:25.138Z,4.20
2024-02-08T11:43:29.618Z,3.60
2024-02-08T11:48:42.272Z,4.00
2024-02-08T11:54:02.599Z,3.80
2024-02-08T11:59:09.363Z,4.30
2024-02-08T12:04:34.994Z,4.80
2024-02-08T12:09:39.185Z,4.30
2024-02-08T12:14:42.008Z,4.40
2024-02-08T12:19:44.971Z,4.70
2024-02-08T12:25:01.356Z,4.10
2024-02-08T12:30:05.056Z,4.20
2024-02-08T12:35:13.392Z,4.80
2024-02-08T12:40:19.396Z,4.40
2024-02-08T12:45:21.673Z,4.50
2024-02-08T12:50:28.806Z,4.40
2024-02-08T12:55:33.007Z,4.50
2024-02-08T13:00:35.793Z,4.90
2024-02-08T13:05:40.440Z,4.90
2024-02-08T13:10:42.899Z,4.40
2024-02-08T13:15:45.077Z,4.60
2024-02-08T13:20:48.016Z,5.30
2024-02-08T13:25:57.101Z,5.60
2024-02-08T13:31:09.248Z,6.00
2024-02-08T13:36:12.294Z,5.20
2024-02-08T13:41:14.345Z,5.40
2024-02-08T13:46:16.722Z,4.80
2024-02-08T13:51:18.989Z,5.30
2024-02-08T13:56:20.995Z,5.60
2024-02-08T14:01:26.080Z,5.80
2024-02-08T14:06:30.514Z,5.70
2024-02-08T14:11:41.506Z,5.10
2024-02-08T14:16:52.635Z,6.50
2024-02-08T14:21:59.597Z,7.20
2024-02-08T14:27:05.671Z,5.90
2024-02-08T14:32:20.870Z,5.30
2024-02-08T14:37:30.715Z,4.80
2024-02-08T14:42:37.915Z,5.20
2024-02-08T14:47:52.492Z,5.30
2024-02-08T14:52:57.125Z,5.20
2024-02-08T14:57:59.407Z,4.80
2024-02-08T15:03:08.558Z,5.10
2024-02-08T15:08:22.528Z,7.30
2024-02-08T15:13:25.009Z,6.40
2024-02-08T15:18:39.646Z,6.30
2024-02-08T15:24:10.328Z,5.70
2024-02-08T15:29:42.541Z,18.20
2024-02-08T15:34:58.359Z,16.30
2024-02-08T15:40:14.839Z,8.30
2024-02-08T15:45:28.179Z,9.80
2024-02-08T15:50:36.893Z,7.80
2024-02-08T15:55:43.211Z,10.10
2024-02-08T16:01:39.357Z,7.80
2024-02-08T16:06:57.630Z,9.30
2024-02-08T16:12:23.305Z,22.50
2024-02-08T16:17:32.391Z,13.60
2024-02-08T16:22:59.048Z,8.40
2024-02-08T16:28:13.449Z,13.50
2024-02-08T16:33:20.434Z,11.90
2024-02-08T16:38:28.292Z,10.30
2024-02-08T16:43:44.500Z,9.90
2024-02-08T16:48:48.792Z,19.30
2024-02-08T16:54:11.530Z,21.20
2024-02-08T16:59:28.243Z,17.70
2024-02-08T17:04:48.546Z,19.00
2024-02-08T17:10:07.453Z,15.80
2024-02-08T17:15:27.682Z,16.30
2024-02-08T17:20:38.785Z,13.60
2024-02-08T17:25:44.400Z,18.10
2024-02-08T17:31:03.202Z,17.50
2024-02-08T17:36:15.155Z,17.00
2024-02-08T17:41:19.222Z,15.30
2024-02-08T17:46:25.248Z,16.30
2024-02-08T17:51:57.592Z,16.30
2024-02-08T17:57:03.764Z,15.10
2024-02-08T18:02:06.716Z,15.60
2024-02-08T18:07:13.783Z,16.10
2024-02-08T18:12:34.784Z,16.90
2024-02-08T18:17:44.960Z,16.60
2024-02-08T18:22:50.154Z,16.60
2024-02-08T18:27:54.440Z,16.40
2024-02-08T18:33:04.242Z,16.20
2024-02-08T18:38:15.284Z,17.00
2024-02-08T18:43:17.636Z,16.10
2024-02-08T18:48:24.170Z,16.00
2024-02-08T18:53:30.255Z,15.10
2024-02-08T18:58:35.228Z,15.60
2024-02-08T19:03:41.080Z,13.80
2024-02-08T19:08:44.560Z,14.10
2024-02-08T19:13:52.248Z,15.40
2024-02-08T19:19:04.060Z,20.40
2024-02-08T19:24:16.128Z,20.80
2024-02-08T19:29:24.756Z,21.00
2024-02-08T19:34:29.965Z,20.10
2024-02-08T19:40:11.581Z,19.20
2024-02-08T19:45:23.883Z,21.30
2024-02-08T19:51:02.010Z,23.80
2024-02-08T19:56:08.032Z,23.80
2024-02-08T20:01:21.716Z,22.90
2024-02-08T20:06:35.949Z,24.40
2024-02-08T20:11:41.235Z,27.40
2024-02-08T20:16:46.299Z,27.20
2024-02-08T20:21:52.015Z,26.50
2024-02-08T20:26:54.472Z,24.60
2024-02-08T20:31:57.477Z,25.70
2024-02-08T20:37:03.157Z,24.10
2024-02-08T20:42:12.714Z,24.20
2024-02-08T20:47:15.275Z,21.80
2024-02-08T20:52:20.689Z,21.60
2024-02-08T20:57:24.014Z,20.90
2024-02-08T21:02:28.969Z,19.80
2024-02-08T21:07:31.147Z,20.80
2024-02-08T21:12:34.487Z,20.80
2024-02-08T21:17:46.069Z,20.00
2024-02-08T21:22:50.879Z,19.30
2024-02-08T21:27:53.873Z,18.90
2024-02-08T21:32:59.368Z,19.40
2024-02-08T21:38:05.530Z,18.60
2024-02-08T21:43:22.045Z,19.10
2024-02-08T21:48:31.879Z,17.50
2024-02-08T21:53:36.040Z,17.80
2024-02-08T21:58:38.213Z,18.70
2024-02-08T22:03:40.829Z,18.10
2024-02-08T22:08:43.087Z,20.00
2024-02-08T22:13:47.857Z,19.90
2024-02-08T22:18:50.474Z,19.20
2024-02-08T22:23:52.748Z,19.40
2024-02-08T22:28:55.085Z,19.90
2024-02-08T22:33:58.225Z,19.30
2024-02-08T22:39:01.648Z,20.90
2024-02-08T22:44:06.833Z,19.60
2024-02-08T22:49:10.819Z,17.90
2024-02-08T22:54:43.528Z,18.20
2024-02-08T22:59:47.067Z,19.40
2024-02-08T23:04:52.194Z,18.10
2024-02-08T23:10:00.623Z,18.50
2024-02-08T23:15:23.133Z,17.90
2024-02-08T23:20:25.711Z,18.60
2024-02-08T23:25:28.867Z,19.50
2024-02-08T23:30:37.521Z,18.90
2024-02-08T23:35:41.156Z,19.80
2024-02-08T23:40:51.206Z,19.70
2024-02-08T23:45:54.928Z,19.10
2024-02-08T23:50:57.879Z,19.30
2024-02-08T23:56:00.671Z,18.20
